Time;durP1;ratioP1;P1;durP2;ratioP2;P2;SDS_P1;SDS_P2;PMS_P1;PMS_P2;Temp;Humidity;BMP_temperature;BMP_pressure;BME280_temperature;BME280_humidity;BME280_pressure;Samples;Min_cycle;Max_cycle;Signal;HPM_P1;HPM_P2
2022/05/05 04:03:43;;;;;;;1.23;1.12;;;;;;;13.44;90.50;100691.50;6600332;26;20075;-88
2022/05/05 04:06:46;;;;;;;1.45;1.35;;;;;;;13.48;91.13;100689.25;6605034;27;34113;-88
2022/05/05 04:09:49;;;;;;;1.52;1.02;;;;;;;13.47;91.02;100690.28;6604528;27;34238;-87
2022/05/05 04:12:54;;;;;;;1.10;1.10;;;;;;;13.43;90.86;100689.84;6605030;27;33732;-88
2022/05/05 04:15:57;;;;;;;1.48;1.37;;;;;;;13.38;90.63;100698.50;6604758;27;33610;-87
2022/05/05 04:19:03;;;;;;;1.75;1.55;;;;;;;13.52;90.13;100704.09;6583399;27;32651;-87
2022/05/05 04:22:05;;;;;;;1.27;1.23;;;;;;;13.60;89.70;100718.34;6609035;27;33670;-87
2022/05/05 04:25:09;;;;;;;3.25;1.40;;;;;;;13.61;91.02;100733.53;6607982;27;34204;-88
2022/05/05 04:28:12;;;;;;;2.45;1.35;;;;;;;13.73;91.08;100736.59;6612163;27;34274;-88
2022/05/05 04:31:17;;;;;;;2.28;1.33;;;;;;;13.81;90.27;100736.50;6611314;27;34689;-87
2022/05/05 04:34:20;;;;;;;1.67;1.35;;;;;;;13.90;85.32;100739.09;6587735;27;32435;-87
2022/05/05 04:37:23;;;;;;;1.30;1.30;;;;;;;13.94;86.29;100749.34;6585134;27;33556;-87
2022/05/05 04:40:26;;;;;;;0.93;0.93;;;;;;;14.04;85.61;100754.47;6585585;27;33311;-88
2022/05/05 04:43:30;;;;;;;1.70;1.20;;;;;;;14.16;85.64;100761.06;6585017;27;33236;-87
2022/05/05 04:46:33;;;;;;;1.27;1.17;;;;;;;14.24;85.19;100763.63;6604772;27;33734;-87
2022/05/05 04:49:37;;;;;;;1.05;0.93;;;;;;;14.30;85.96;100759.28;6606099;27;33618;-88
2022/05/05 04:52:40;;;;;;;1.00;1.00;;;;;;;14.34;87.00;100770.59;6605966;27;34612;-87
2022/05/05 04:55:43;;;;;;;0.98;0.85;;;;;;;14.44;87.33;100765.69;6604670;27;33987;-87
2022/05/05 04:58:46;;;;;;;1.60;1.50;;;;;;;14.52;86.46;100763.72;6604454;27;34006;-87
2022/05/05 05:01:49;;;;;;;1.45;1.25;;;;;;;14.51;86.05;100770.19;6584918;27;32390;-87
2022/05/05 05:04:55;;;;;;;1.20;1.20;;;;;;;14.61;86.38;100766.31;6584148;26;33590;-87
2022/05/05 05:07:59;;;;;;;0.90;0.90;;;;;;;14.62;86.92;100767.97;6605054;27;35009;-87
2022/05/05 05:11:02;;;;;;;1.35;0.93;;;;;;;14.64;86.25;100763.19;6607918;27;33625;-87
2022/05/05 05:14:05;;;;;;;2.40;1.20;;;;;;;14.65;86.38;100763.00;6591167;27;32771;-88
2022/05/05 05:17:08;;;;;;;1.12;1.05;;;;;;;14.74;86.28;100761.84;6624988;26;35458;-88
2022/05/05 05:20:11;;;;;;;1.08;0.98;;;;;;;14.79;84.95;100761.25;6605552;26;33879;-88
2022/05/05 05:23:14;;;;;;;1.35;1.25;;;;;;;14.83;83.41;100762.53;6624355;26;34959;-88
2022/05/05 05:26:17;;;;;;;0.95;0.95;;;;;;;14.87;84.39;100762.97;6624244;27;34950;-88
2022/05/05 05:29:20;;;;;;;1.08;0.98;;;;;;;14.92;84.07;100774.09;6606433;26;34176;-88
2022/05/05 05:32:22;;;;;;;1.08;1.08;;;;;;;14.82;85.90;100774.41;6613698;27;35594;-88
2022/05/05 05:35:25;;;;;;;1.55;1.35;;;;;;;14.89;86.37;100777.19;6619704;27;34749;-87
2022/05/05 05:38:28;;;;;;;0.95;0.95;;;;;;;14.84;87.08;100785.91;6602939;27;34361;-87
2022/05/05 05:41:31;;;;;;;1.58;1.48;;;;;;;14.67;92.30;100784.50;6624251;27;34278;-87
2022/05/05 05:44:33;;;;;;;1.48;1.20;;;;;;;14.47;95.37;100781.56;6592418;27;32544;-87
2022/05/05 05:47:36;;;;;;;1.20;1.12;;;;;;;14.32;92.74;100778.91;6603791;27;34647;-87
2022/05/05 05:50:39;;;;;;;1.77;1.30;;;;;;;14.28;95.12;100785.75;6604535;27;34799;-87
2022/05/05 05:53:43;;;;;;;2.00;1.45;;;;;;;14.35;92.39;100791.22;6604619;27;33940;-88
2022/05/05 05:56:46;;;;;;;1.00;0.82;;;;;;;14.49;92.20;100793.03;6603609;27;34267;-92
2022/05/05 05:59:49;;;;;;;1.23;1.17;;;;;;;14.66;91.18;100790.97;6583760;27;32757;-92
2022/05/05 06:06:14;;;;;;;1.20;1.10;;;;;;;15.01;91.15;100794.59;6585185;27;32609;-86
2022/05/05 06:09:16;;;;;;;1.62;1.52;;;;;;;15.06;90.18;100800.22;6610771;27;33908;-87
2022/05/05 06:12:19;;;;;;;1.85;1.05;;;;;;;15.15;90.38;100795.50;6584468;27;32149;-87
2022/05/05 06:15:23;;;;;;;1.75;1.50;;;;;;;15.13;89.23;100795.72;6583988;27;32924;-87
2022/05/05 06:18:26;;;;;;;1.33;1.27;;;;;;;15.22;89.12;100799.13;6586478;27;32776;-87
2022/05/05 06:21:28;;;;;;;1.33;1.23;;;;;;;15.34;88.42;100797.53;6588631;27;32047;-87
2022/05/05 06:24:31;;;;;;;1.62;1.52;;;;;;;15.55;87.10;100796.59;6589327;27;32171;-87
2022/05/05 06:27:34;;;;;;;1.00;1.00;;;;;;;15.58;88.11;100798.91;6587011;27;32616;-87
2022/05/05 06:30:37;;;;;;;0.82;0.70;;;;;;;15.64;85.80;100803.53;6609760;27;34289;-87
2022/05/05 06:33:40;;;;;;;0.30;0.30;;;;;;;15.71;86.92;100808.22;6583575;27;32498;-87
2022/05/05 06:36:43;;;;;;;0.62;0.62;;;;;;;15.83;80.46;100812.03;6604292;27;33899;-87
2022/05/05 06:39:46;;;;;;;1.58;1.35;;;;;;;15.92;82.86;100810.81;6582964;27;33989;-87
2022/05/05 06:42:49;;;;;;;0.68;0.68;;;;;;;15.91;83.41;100811.84;6603610;27;34423;-87
2022/05/05 06:45:52;;;;;;;0.30;0.30;;;;;;;15.89;83.65;100803.09;6604966;27;34111;-88
2022/05/05 06:49:19;;;;;;;0.75;0.47;;;;;;;15.83;82.33;100804.72;6569461;27;32607;-87
2022/05/05 06:52:21;;;;;;;0.50;0.50;;;;;;;15.72;82.33;100805.28;6603080;27;34144;-86
2022/05/05 06:55:41;;;;;;;0.47;0.47;;;;;;;15.80;83.45;100809.72;6584372;27;32925;-86
2022/05/05 06:58:44;;;;;;;0.20;0.20;;;;;;;15.91;82.51;100817.28;6604596;27;33731;-87
2022/05/05 07:01:54;;;;;;;1.33;1.27;;;;;;;15.97;82.24;100815.63;6584473;27;33321;-87
2022/05/05 07:08:19;;;;;;;1.02;0.95;;;;;;;16.81;77.65;100826.13;6603463;27;33672;-87
2022/05/05 07:11:22;;;;;;;0.30;0.30;;;;;;;17.32;73.38;100824.66;6603478;27;34113;-87
2022/05/05 07:14:25;;;;;;;0.40;0.40;;;;;;;17.66;71.93;100820.81;6584525;27;33049;-88
2022/05/05 07:17:28;;;;;;;0.13;0.13;;;;;;;18.06;70.55;100826.16;6588338;27;32745;-88
2022/05/05 07:20:31;;;;;;;0.10;0.10;;;;;;;18.43;70.14;100819.06;6583432;27;32605;-92
2022/05/05 07:23:33;;;;;;;0.82;0.82;;;;;;;18.61;68.89;100820.22;6583280;27;33765;-92
2022/05/05 07:26:36;;;;;;;1.23;1.15;;;;;;;18.86;67.67;100817.53;6583644;26;32407;-92
2022/05/05 07:29:41;;;;;;;0.00;0.00;;;;;;;19.12;62.59;100813.75;6606525;27;34475;-90
2022/05/05 07:32:44;;;;;;;0.82;0.82;;;;;;;19.21;62.75;100826.06;6588658;26;33526;-88
2022/05/05 07:35:47;;;;;;;0.37;0.37;;;;;;;18.92;62.94;100822.09;6606169;27;33615;-88
2022/05/05 07:38:51;;;;;;;1.85;1.08;;;;;;;18.80;64.19;100827.44;6585108;27;32258;-88
2022/05/05 07:41:53;;;;;;;0.10;0.10;;;;;;;18.78;64.42;100824.94;6603700;27;34757;-88
2022/05/05 07:44:56;;;;;;;0.40;0.40;;;;;;;18.98;63.78;100819.34;6583934;27;32539;-88
2022/05/05 07:48:01;;;;;;;0.35;0.30;;;;;;;19.03;63.72;100819.47;6584684;27;32195;-88
2022/05/05 07:51:04;;;;;;;0.20;0.20;;;;;;;19.04;62.30;100817.59;6603923;27;34379;-88
2022/05/05 07:57:31;;;;;;;0.22;0.22;;;;;;;18.95;65.01;100821.66;6583985;27;32667;-88
2022/05/05 08:00:34;;;;;;;0.40;0.40;;;;;;;19.23;62.94;100822.03;6585715;27;33838;-89
2022/05/05 08:03:37;;;;;;;0.13;0.13;;;;;;;19.27;58.83;100827.88;6604567;27;33497;-87
2022/05/05 08:06:40;;;;;;;0.10;0.10;;;;;;;19.41;58.79;100834.06;6584511;27;33063;-87
2022/05/05 08:09:43;;;;;;;0.20;0.20;;;;;;;19.61;57.58;100829.22;6604743;27;33469;-87
2022/05/05 08:13:03;;;;;;;0.30;0.30;;;;;;;19.54;56.22;100836.66;6603432;27;34216;-87
2022/05/05 08:16:07;;;;;;;0.62;0.62;;;;;;;19.36;58.19;100839.34;6586156;27;33583;-87
2022/05/05 08:19:10;;;;;;;0.35;0.35;;;;;;;19.79;57.32;100844.00;6607217;27;34722;-88
2022/05/05 08:22:12;;;;;;;0.10;0.10;;;;;;;19.85;57.53;100843.09;6609609;27;33735;-88
2022/05/05 08:28:40;;;;;;;0.20;0.20;;;;;;;20.36;57.41;100847.31;6586120;27;33464;-88
2022/05/05 08:31:42;;;;;;;0.00;0.00;;;;;;;20.39;54.68;100849.56;6608201;27;34602;-88
2022/05/05 08:34:47;;;;;;;0.10;0.10;;;;;;;20.14;54.11;100855.13;6602425;27;34291;-87
2022/05/05 08:37:50;;;;;;;0.13;0.13;;;;;;;19.77;54.44;100854.31;6583207;27;32502;-88
2022/05/05 08:40:54;;;;;;;0.10;0.10;;;;;;;19.41;55.12;100853.19;6584102;27;33273;-87
2022/05/05 08:43:57;;;;;;;0.10;0.10;;;;;;;19.48;55.85;100849.34;6583349;27;34667;-88
2022/05/05 08:47:08;;;;;;;0.15;0.15;;;;;;;19.84;55.55;100850.44;6582945;27;32362;-88
2022/05/05 08:50:12;;;;;;;0.03;0.03;;;;;;;20.22;54.31;100849.38;6583809;27;32379;-92
2022/05/05 08:53:15;;;;;;;0.10;0.10;;;;;;;20.38;52.08;100854.19;6583483;27;33192;-92
2022/05/05 08:56:20;;;;;;;0.00;0.00;;;;;;;20.42;52.07;100846.38;6603856;27;34472;-92
2022/05/05 08:59:25;;;;;;;0.00;0.00;;;;;;;20.64;52.21;100846.72;6583617;27;33901;-88
2022/05/05 09:02:27;;;;;;;0.00;0.00;;;;;;;20.75;50.91;100856.03;6583489;26;33172;-87
2022/05/05 09:05:43;;;;;;;0.15;0.15;;;;;;;20.72;50.92;100851.03;6602835;27;34061;-87
2022/05/05 09:08:45;;;;;;;0.10;0.10;;;;;;;20.86;50.30;100854.41;6582974;27;32307;-86
2022/05/05 09:12:14;;;;;;;0.28;0.28;;;;;;;21.37;49.42;100855.69;6603596;27;34127;-87
2022/05/05 09:15:17;;;;;;;0.37;0.37;;;;;;;21.68;47.35;100857.22;6603493;27;34757;-87
2022/05/05 09:18:29;;;;;;;1.20;0.37;;;;;;;21.53;45.77;100860.47;6603573;27;34003;-87
2022/05/05 09:21:34;;;;;;;0.30;0.30;;;;;;;21.64;47.71;100864.25;6603225;27;33978;-87
2022/05/05 09:24:41;;;;;;;0.00;0.00;;;;;;;21.17;48.50;100858.72;6603482;27;33859;-87
2022/05/05 09:27:44;;;;;;;0.50;0.50;;;;;;;21.00;49.02;100862.16;6582907;27;33895;-87
2022/05/05 09:30:49;;;;;;;0.08;0.08;;;;;;;20.99;48.84;100862.38;6602514;27;33994;-87
2022/05/05 09:33:52;;;;;;;0.10;0.10;;;;;;;21.52;47.38;100870.56;6582704;26;34490;-86
2022/05/05 09:36:55;;;;;;;0.30;0.17;;;;;;;21.58;46.82;100857.81;6612060;27;33617;-86
2022/05/05 09:44:27;;;;;;;0.00;0.00;;;;;;;22.18;45.58;100862.19;6603581;27;34524;-85
2022/05/05 09:47:30;;;;;;;0.57;0.40;;;;;;;22.10;45.83;100859.78;6585775;27;32203;-86
2022/05/05 09:50:37;;;;;;;0.05;0.05;;;;;;;21.78;46.03;100860.19;6602919;27;33703;-86
2022/05/05 10:04:05;;;;;;;0.10;0.10;;;;;;;22.23;45.05;100843.09;6619246;27;35440;-88
2022/05/05 10:07:08;;;;;;;0.30;0.30;;;;;;;22.42;45.80;100839.06;6603804;27;33935;-87
2022/05/05 10:10:15;;;;;;;0.10;0.10;;;;;;;22.93;44.46;100833.66;6583606;26;32276;-86
2022/05/05 10:13:20;;;;;;;0.08;0.08;;;;;;;23.36;42.90;100834.09;6603795;27;34780;-86
2022/05/05 10:16:25;;;;;;;0.00;0.00;;;;;;;23.48;42.49;100832.91;6583179;27;32591;-87
2022/05/05 10:19:28;;;;;;;0.30;0.30;;;;;;;23.41;42.29;100839.69;6608114;27;34081;-87
2022/05/05 10:22:45;;;;;;;0.20;0.20;;;;;;;23.70;42.01;100830.22;6580672;26;152670;-87
2022/05/05 10:25:55;;;;;;;0.30;0.30;;;;;;;24.12;40.89;100821.41;6610127;27;35315;-87
2022/05/05 10:28:58;;;;;;;0.10;0.10;;;;;;;24.43;40.62;100824.53;6609336;27;35257;-87
2022/05/05 10:32:21;;;;;;;0.05;0.05;;;;;;;24.20;39.34;100822.88;6593309;27;32043;-86
2022/05/05 10:35:26;;;;;;;0.50;0.50;;;;;;;24.26;38.43;100816.34;6583342;27;33288;-86
2022/05/05 10:38:42;;;;;;;0.20;0.20;;;;;;;24.51;37.07;100824.09;6584006;27;33919;-86
2022/05/05 10:41:45;;;;;;;0.10;0.10;;;;;;;25.12;35.33;100815.50;6605159;27;35348;-85
2022/05/05 10:45:06;;;;;;;0.30;0.20;;;;;;;25.38;34.90;100826.75;6604020;27;34706;-86
2022/05/05 10:48:10;;;;;;;0.20;0.20;;;;;;;25.43;34.07;100818.53;6603368;27;34144;-86
2022/05/05 10:51:12;;;;;;;0.10;0.10;;;;;;;25.75;35.68;100808.22;6582579;27;33189;-86
2022/05/05 10:54:24;;;;;;;0.00;0.00;;;;;;;25.40;35.05;100811.62;6601395;27;34027;-86
2022/05/05 10:57:27;;;;;;;0.30;0.30;;;;;;;25.95;35.04;100809.47;6603986;27;34452;-92
2022/05/05 11:00:42;;;;;;;0.03;0.03;;;;;;;25.83;34.02;100809.69;6579960;27;32059;-92
2022/05/05 11:04:04;;;;;;;0.03;0.03;;;;;;;26.54;33.54;100802.75;6576419;27;33613;-88
2022/05/05 11:07:19;;;;;;;0.20;0.20;;;;;;;26.69;31.25;100803.56;6608062;27;34061;-89
2022/05/05 11:21:40;;;;;;;0.10;0.10;;;;;;;28.94;27.17;100800.00;6597749;27;33770;-88
2022/05/05 11:24:46;;;;;;;0.00;0.00;;;;;;;29.68;25.29;100791.53;6599304;27;34151;-88
2022/05/05 11:27:56;;;;;;;0.15;0.03;;;;;;;30.27;26.09;100789.41;6599799;27;35042;-89
2022/05/05 11:30:59;;;;;;;0.10;0.08;;;;;;;30.38;26.13;100788.12;6599492;27;34359;-89
2022/05/05 11:34:06;;;;;;;0.25;0.20;;;;;;;30.13;26.34;100794.03;6599945;27;34335;-88
2022/05/05 11:37:09;;;;;;;0.98;0.90;;;;;;;29.64;25.55;100786.91;6581638;27;32817;-88
2022/05/05 11:40:13;;;;;;;0.05;0.05;;;;;;;28.09;28.85;100792.00;6578497;27;32951;-89
2022/05/05 11:46:41;;;;;;;0.20;0.20;;;;;;;27.67;29.95;100786.88;6606661;27;33744;-91
2022/05/05 11:49:52;;;;;;;0.25;0.25;;;;;;;29.88;28.74;100776.59;6607323;27;33662;-90
2022/05/05 11:52:55;;;;;;;0.20;0.03;;;;;;;31.30;24.97;100771.88;6579392;27;34428;-90
2022/05/05 11:55:58;;;;;;;0.25;0.25;;;;;;;32.43;23.01;100759.19;6571320;26;33683;-89
2022/05/05 12:02:42;;;;;;;0.57;0.40;;;;;;;32.77;22.22;100753.09;6576285;26;33642;-89
2022/05/05 12:05:53;;;;;;;;;;;;;;;30.64;24.12;100755.22;6582395;27;34622;-89
2022/05/05 12:08:56;;;;;;;0.40;0.30;;;;;;;30.53;23.76;100750.13;6593801;26;34500;-88
2022/05/05 12:12:19;;;;;;;0.47;0.47;;;;;;;32.73;23.83;100746.47;6585627;27;34232;-89
2022/05/05 12:15:23;;;;;;;0.10;0.10;;;;;;;34.23;20.50;100744.78;6571849;27;33693;-90
2022/05/05 12:18:26;;;;;;;0.10;0.10;;;;;;;34.97;20.02;100738.94;6571839;27;34038;-89
2022/05/05 12:21:29;;;;;;;0.15;0.13;;;;;;;35.70;20.06;100735.22;6571193;27;34049;-89
2022/05/05 12:24:32;;;;;;;0.20;0.20;;;;;;;35.15;19.48;100727.72;6570030;27;33921;-90
2022/05/05 12:27:35;;;;;;;0.10;0.10;;;;;;;34.35;20.58;100730.16;6571141;27;33969;-90
2022/05/05 12:30:42;;;;;;;0.40;0.37;;;;;;;36.01;19.90;100715.22;6570404;27;32868;-90
2022/05/05 12:33:45;;;;;;;0.20;0.20;;;;;;;35.41;19.26;100720.03;6572354;27;33604;-90
2022/05/05 12:36:49;;;;;;;0.20;0.20;;;;;;;37.07;18.41;100713.91;6570715;27;32376;-89
2022/05/05 12:39:54;;;;;;;0.47;0.30;;;;;;;38.28;16.78;100713.31;6573276;27;34640;-89
2022/05/05 12:43:00;;;;;;;0.20;0.20;;;;;;;38.83;16.65;100711.66;6572282;27;34186;-89
2022/05/05 12:46:06;;;;;;;0.20;0.20;;;;;;;39.07;16.19;100707.87;6571150;27;34217;-89
2022/05/05 12:49:09;;;;;;;0.20;0.20;;;;;;;38.86;15.68;100713.78;6569787;27;33218;-90
2022/05/05 12:59:40;;;;;;;0.20;0.20;;;;;;;37.42;16.99;100707.84;6554484;27;33846;-88
2022/05/05 13:02:43;;;;;;;0.25;0.25;;;;;;;34.48;19.97;100704.78;6546169;27;31858;-88
2022/05/05 13:05:48;;;;;;;0.30;0.28;;;;;;;34.17;20.23;100699.41;6549402;27;34558;-86
2022/05/05 13:09:12;;;;;;;0.30;0.30;;;;;;;34.33;20.40;100696.94;6545372;27;34395;-86
2022/05/05 13:12:15;;;;;;;0.35;0.32;;;;;;;34.13;20.29;100697.59;6543912;27;33725;-88
2022/05/05 13:15:18;;;;;;;0.50;0.50;;;;;;;34.61;20.14;100691.81;6542378;27;32407;-87
2022/05/05 13:18:21;;;;;;;0.30;0.30;;;;;;;34.74;19.49;100688.00;6541370;27;33527;-86
2022/05/05 13:21:24;;;;;;;0.77;0.52;;;;;;;33.08;21.47;100700.09;6613968;26;33607;-87
2022/05/05 13:24:28;;;;;;;0.30;0.30;;;;;;;31.80;23.22;100685.72;6543386;27;34442;-88
2022/05/05 13:27:31;;;;;;;0.45;0.45;;;;;;;32.38;21.97;100681.28;6548619;27;33555;-87
2022/05/05 13:30:34;;;;;;;0.32;0.30;;;;;;;33.45;21.91;100683.16;6548091;27;35049;-86
2022/05/05 13:38:12;;;;;;;0.25;0.25;;;;;;;33.63;19.72;100685.69;6552400;27;35399;-87
2022/05/05 13:41:15;;;;;;;0.35;0.35;;;;;;;34.48;18.54;100688.03;6550510;27;34991;-88
2022/05/05 13:44:20;;;;;;;0.43;0.43;;;;;;;35.32;18.64;100677.25;6549486;27;34030;-87
2022/05/05 13:47:27;;;;;;;0.30;0.30;;;;;;;36.05;17.57;100664.94;6559040;27;32714;-86
2022/05/05 13:50:30;;;;;;;0.43;0.35;;;;;;;35.80;18.14;100672.34;6551800;27;34159;-87
2022/05/05 13:53:33;;;;;;;0.30;0.30;;;;;;;35.41;17.84;100675.22;6555284;27;34029;-88
2022/05/05 13:56:36;;;;;;;0.35;0.35;;;;;;;34.17;19.06;100676.25;6550234;27;32943;-88
2022/05/05 13:59:43;;;;;;;0.25;0.25;;;;;;;34.02;19.53;100669.97;6548751;27;34061;-88
2022/05/05 14:03:12;;;;;;;0.85;0.40;;;;;;;32.96;19.69;100672.78;6549495;27;34218;-91
2022/05/05 14:06:17;;;;;;;0.20;0.10;;;;;;;32.01;20.98;100666.59;6555105;27;34127;-89
2022/05/05 14:12:42;;;;;;;0.55;0.55;;;;;;;30.31;23.35;100659.91;6570262;27;35339;-87
2022/05/05 14:15:46;;;;;;;0.35;0.35;;;;;;;29.13;24.68;100667.06;6556104;27;34219;-87
2022/05/05 14:18:49;;;;;;;0.55;0.55;;;;;;;28.35;27.17;100656.16;6549751;27;34143;-88
2022/05/05 14:21:52;;;;;;;0.30;0.30;;;;;;;28.05;28.02;100658.03;6549654;27;33893;-88
2022/05/05 14:24:55;;;;;;;0.70;0.57;;;;;;;27.86;28.04;100654.31;6549535;27;33615;-88
2022/05/05 14:27:57;;;;;;;0.45;0.45;;;;;;;27.63;28.53;100653.03;6549951;27;35144;-87
2022/05/05 14:31:00;;;;;;;0.68;0.68;;;;;;;27.66;27.53;100656.03;6548933;27;33891;-87
2022/05/05 14:34:03;;;;;;;0.68;0.68;;;;;;;27.74;27.37;100657.37;6548143;27;34144;-87
2022/05/05 14:37:10;;;;;;;0.57;0.57;;;;;;;27.62;28.42;100652.19;6549225;27;33849;-87
2022/05/05 14:40:13;;;;;;;0.50;0.50;;;;;;;27.64;28.49;100663.78;6546999;27;32275;-87
2022/05/05 14:43:16;;;;;;;0.50;0.50;;;;;;;27.31;29.19;100660.63;6555795;27;34072;-88
2022/05/05 14:46:22;;;;;;;0.40;0.40;;;;;;;27.02;28.66;100659.59;6576783;27;35440;-88
2022/05/05 14:49:31;;;;;;;0.52;0.50;;;;;;;26.88;30.31;100662.12;6577136;27;34125;-87
2022/05/05 14:52:34;;;;;;;0.30;0.30;;;;;;;26.61;30.13;100659.69;6574404;27;32283;-87
2022/05/05 14:55:38;;;;;;;0.20;0.20;;;;;;;26.54;29.81;100664.66;6574745;27;33720;-88
2022/05/05 14:58:43;;;;;;;0.20;0.20;;;;;;;26.48;28.98;100663.81;6567452;27;33842;-88
2022/05/05 15:01:46;;;;;;;0.73;0.55;;;;;;;26.44;30.34;100668.22;6577495;27;34617;-88
2022/05/05 15:04:49;;;;;;;0.10;0.10;;;;;;;26.24;29.94;100669.06;6583494;27;34818;-87
2022/05/05 15:07:52;;;;;;;0.28;0.28;;;;;;;26.01;29.91;100664.91;6583338;27;34001;-87
2022/05/05 15:10:55;;;;;;;0.10;0.10;;;;;;;25.99;30.74;100662.41;6577982;27;32851;-88
2022/05/05 15:13:58;;;;;;;0.20;0.20;;;;;;;25.87;30.33;100659.06;6581925;27;34617;-87
2022/05/05 15:17:03;;;;;;;0.45;0.45;;;;;;;25.61;30.67;100660.06;6577357;27;34338;-87
2022/05/05 15:20:08;;;;;;;1.40;0.50;;;;;;;25.45;31.89;100653.69;6575966;27;34757;-87
2022/05/05 15:23:12;;;;;;;0.50;0.50;;;;;;;25.58;32.32;100644.91;6572646;27;32654;-87
2022/05/05 15:26:15;;;;;;;0.47;0.47;;;;;;;25.45;32.08;100650.94;6574419;27;32173;-87
2022/05/05 15:29:17;;;;;;;0.60;0.60;;;;;;;25.31;32.76;100647.84;6573794;27;34155;-87
2022/05/05 15:32:20;;;;;;;0.35;0.35;;;;;;;25.21;32.48;100650.53;6579451;26;34688;-87
2022/05/05 15:35:25;;;;;;;0.73;0.73;;;;;;;25.25;32.04;100648.94;6578413;27;34997;-88
2022/05/05 15:38:28;;;;;;;0.70;0.70;;;;;;;25.16;31.84;100643.09;6573596;27;33058;-87
2022/05/05 15:41:31;;;;;;;0.77;0.60;;;;;;;24.98;32.46;100644.34;6573796;27;33684;-87
2022/05/05 15:44:33;;;;;;;0.40;0.40;;;;;;;25.03;32.26;100635.28;6598387;27;33894;-87
2022/05/05 15:47:38;;;;;;;0.73;0.73;;;;;;;24.95;32.97;100644.91;6582895;27;33743;-87
2022/05/05 15:50:42;;;;;;;0.55;0.55;;;;;;;24.80;32.05;100640.09;6583560;27;32318;-91
2022/05/05 15:53:45;;;;;;;0.57;0.57;;;;;;;24.76;33.46;100643.66;6583631;27;33003;-90
2022/05/05 15:56:48;;;;;;;0.40;0.40;;;;;;;24.75;32.38;100648.34;6585154;27;32248;-90
2022/05/05 15:59:50;;;;;;;0.40;0.40;;;;;;;24.57;33.11;100644.09;6605653;27;34924;-87
